Terminal Aerodrome Forecast
Issued by NWS

Current Version | Previous Version | Text Only | Print | Product List | Glossary Off
Versions: 1 2 3 4 5 6 7 8 9 10 11 12 13 14 15 16

000
FTUS41 KILN 242349 CCA
TAFLCK
TAF COR
KLCK 242349Z 2500/2524 11008KT P6SM VCTS OVC025CB
     FM250800 17006KT P6SM VCSH OVC017
     FM251200 17005KT 6SM -SHRA BR OVC015
     FM252300 28009KT 6SM -SHRA BR OVC030=

USA.gov is the U.S. government's official web portal to all federal, state and local government web resources and services.